createdAt,value
2023-04-26T00:01:04.180Z,9.29
2023-04-26T00:03:40.652Z,9.42
2023-04-26T00:06:12.245Z,9.38
2023-04-26T00:08:40.807Z,9.45
2023-04-26T00:11:08.437Z,9.47
2023-04-26T00:13:37.178Z,9.53
2023-04-26T00:16:08.517Z,9.53
2023-04-26T00:18:36.085Z,9.56
2023-04-26T00:21:03.769Z,9.64
2023-04-26T00:23:32.125Z,9.58
2023-04-26T00:26:00.981Z,9.59
2023-04-26T00:28:30.146Z,9.51
2023-04-26T00:30:58.360Z,9.38
2023-04-26T00:33:26.463Z,9.41
2023-04-26T00:35:54.240Z,9.44
2023-04-26T00:38:21.901Z,9.34
2023-04-26T00:40:49.430Z,9.27
2023-04-26T00:43:16.509Z,9.25
2023-04-26T00:45:43.833Z,8.97
2023-04-26T00:48:12.181Z,8.87
2023-04-26T00:50:39.737Z,8.90
2023-04-26T00:53:09.056Z,8.85
2023-04-26T00:55:40.558Z,8.88
2023-04-26T00:58:07.606Z,8.88
2023-04-26T01:00:34.784Z,8.81
2023-04-26T01:03:02.240Z,8.78
2023-04-26T01:05:32.214Z,8.68
2023-04-26T01:08:02.091Z,8.63
2023-04-26T01:10:36.127Z,8.65
2023-04-26T01:13:07.913Z,8.62
2023-04-26T01:15:36.207Z,8.61
2023-04-26T01:18:03.577Z,8.58
2023-04-26T01:20:30.970Z,8.57
2023-04-26T01:22:58.196Z,8.45
2023-04-26T01:25:25.372Z,8.28
2023-04-26T01:27:52.543Z,8.33
2023-04-26T01:30:19.728Z,8.24
2023-04-26T01:33:12.239Z,8.19
2023-04-26T01:35:39.461Z,8.26
2023-04-26T01:38:06.735Z,8.30
2023-04-26T01:45:59.436Z,8.11
2023-04-26T01:48:30.908Z,8.03
2023-04-26T01:51:01.077Z,7.99
2023-04-26T01:53:28.289Z,7.91
2023-04-26T01:55:55.726Z,7.96
2023-04-26T01:58:22.972Z,7.97
2023-04-26T02:00:50.477Z,7.98
2023-04-26T02:03:18.189Z,7.87
2023-04-26T02:05:45.354Z,7.84
2023-04-26T02:08:12.514Z,7.85
2023-04-26T02:10:45.559Z,7.59
2023-04-26T02:13:13.157Z,7.52
2023-04-26T02:15:40.764Z,7.54
2023-04-26T02:18:09.571Z,7.52
2023-04-26T02:20:37.910Z,7.52
2023-04-26T02:23:05.146Z,7.53
2023-04-26T02:25:32.319Z,7.48
2023-04-26T02:28:02.604Z,7.25
2023-04-26T02:30:30.430Z,7.21
2023-04-26T02:32:58.979Z,7.29
2023-04-26T02:35:26.732Z,7.31
2023-04-26T02:37:53.931Z,7.35
2023-04-26T02:40:22.056Z,6.79
2023-04-26T02:42:49.312Z,6.32
2023-04-26T02:45:16.594Z,6.52
2023-04-26T02:47:44.356Z,6.79
2023-04-26T02:50:12.097Z,6.82
2023-04-26T02:52:39.945Z,6.80
2023-04-26T02:55:08.636Z,6.61
2023-04-26T02:57:36.006Z,6.63
2023-04-26T03:00:05.582Z,6.58
2023-04-26T03:02:33.573Z,6.40
2023-04-26T03:05:00.921Z,6.60
2023-04-26T03:07:28.517Z,6.68
2023-04-26T03:09:55.878Z,6.52
2023-04-26T03:12:23.064Z,6.59
2023-04-26T03:14:50.273Z,6.71
2023-04-26T03:17:18.236Z,6.83
2023-04-26T03:19:45.623Z,7.03
2023-04-26T03:22:16.371Z,7.09
2023-04-26T03:24:44.659Z,7.12
2023-04-26T03:27:13.361Z,7.20
2023-04-26T03:29:42.193Z,7.12
2023-04-26T03:32:11.332Z,7.26
2023-04-26T03:34:39.136Z,7.34
2023-04-26T03:37:06.984Z,7.31
2023-04-26T03:39:34.494Z,7.26
2023-04-26T03:42:01.882Z,7.17
2023-04-26T03:44:31.082Z,7.17
2023-04-26T03:46:59.036Z,7.06
2023-04-26T03:49:27.010Z,7.06
2023-04-26T03:51:56.169Z,6.91
2023-04-26T03:54:23.607Z,6.89
2023-04-26T03:56:51.217Z,6.80
2023-04-26T03:59:20.537Z,6.73
2023-04-26T04:01:48.834Z,6.73
2023-04-26T04:04:17.408Z,6.68
2023-04-26T04:06:46.371Z,6.64
2023-04-26T04:09:14.271Z,6.64
2023-04-26T04:11:41.608Z,6.59
2023-04-26T04:14:08.790Z,6.53
2023-04-26T04:16:36.106Z,6.51
2023-04-26T04:19:03.972Z,6.48
2023-04-26T04:21:32.060Z,6.47
2023-04-26T04:24:00.851Z,6.41
2023-04-26T04:26:28.255Z,6.43
2023-04-26T04:28:55.800Z,6.43
2023-04-26T04:31:23.349Z,6.44
2023-04-26T04:33:50.930Z,6.52
2023-04-26T04:36:19.168Z,6.46
2023-04-26T04:38:49.780Z,6.44
2023-04-26T04:41:22.378Z,6.33
2023-04-26T04:43:50.974Z,6.38
2023-04-26T04:46:18.145Z,6.43
2023-04-26T04:48:45.830Z,6.40
2023-04-26T04:51:13.403Z,6.46
2023-04-26T04:53:41.033Z,6.47
2023-04-26T04:56:08.802Z,6.21
2023-04-26T04:58:36.242Z,6.29
2023-04-26T05:01:03.414Z,6.33
2023-04-26T05:03:41.879Z,6.46
2023-04-26T05:06:09.920Z,6.55
2023-04-26T05:08:37.237Z,6.55
2023-04-26T05:11:06.302Z,6.66
2023-04-26T05:13:33.690Z,6.79
2023-04-26T05:16:01.055Z,6.89
2023-04-26T05:18:28.638Z,6.97
2023-04-26T05:20:56.246Z,7.04
2023-04-26T05:23:24.312Z,7.13
2023-04-26T05:25:52.632Z,7.32
2023-04-26T05:28:51.269Z,7.43
2023-04-26T05:31:32.947Z,7.47
2023-04-26T05:34:17.366Z,7.40
2023-04-26T05:36:50.280Z,7.52
2023-04-26T05:39:23.802Z,7.69
2023-04-26T05:41:52.200Z,7.67
2023-04-26T05:44:19.675Z,7.81
2023-04-26T05:46:47.601Z,7.46
2023-04-26T05:49:16.068Z,7.68
2023-04-26T05:51:43.747Z,7.82
2023-04-26T05:54:12.058Z,7.99
2023-04-26T05:56:40.264Z,7.96
2023-04-26T05:59:12.090Z,7.45
2023-04-26T06:01:39.682Z,7.77
2023-04-26T06:04:08.087Z,7.66
2023-04-26T06:06:46.497Z,7.81
2023-04-26T06:09:14.648Z,8.02
2023-04-26T06:11:42.279Z,8.20
2023-04-26T06:14:19.821Z,8.24
2023-04-26T06:16:57.996Z,8.34
2023-04-26T06:19:25.642Z,8.39
2023-04-26T06:21:55.313Z,8.57
2023-04-26T06:24:25.247Z,8.14
2023-04-26T06:26:52.795Z,8.39
2023-04-26T06:29:21.984Z,8.53
2023-04-26T06:31:49.463Z,8.63
2023-04-26T06:34:20.405Z,8.77
2023-04-26T06:36:48.404Z,8.86
2023-04-26T06:39:17.183Z,9.04
2023-04-26T06:41:44.902Z,9.00
2023-04-26T06:44:12.803Z,9.26
2023-04-26T06:46:43.473Z,9.51
2023-04-26T06:49:11.672Z,9.51
2023-04-26T06:51:38.910Z,8.88
2023-04-26T06:54:06.358Z,9.28
2023-04-26T06:56:33.583Z,9.46
2023-04-26T06:59:04.662Z,9.80
2023-04-26T07:01:34.136Z,10.02
2023-04-26T07:04:10.976Z,10.25
2023-04-26T07:06:39.394Z,10.28
2023-04-26T07:09:08.036Z,10.22
2023-04-26T07:11:35.740Z,10.33
2023-04-26T07:14:03.052Z,10.40
2023-04-26T07:16:30.556Z,10.14
2023-04-26T07:18:58.527Z,10.32
2023-04-26T07:21:29.418Z,10.48
2023-04-26T07:23:58.242Z,10.45
2023-04-26T07:26:27.704Z,10.62
2023-04-26T07:28:55.508Z,10.63
2023-04-26T07:31:23.162Z,10.76
2023-04-26T07:33:50.635Z,10.60
2023-04-26T07:36:18.395Z,10.29
2023-04-26T07:38:46.009Z,10.51
2023-04-26T07:41:13.317Z,10.72
2023-04-26T07:43:40.532Z,9.99
2023-04-26T07:46:08.272Z,10.11
2023-04-26T07:48:35.805Z,10.01
2023-04-26T07:51:28.665Z,10.12
2023-04-26T07:53:56.197Z,10.25
2023-04-26T07:56:24.652Z,10.44
2023-04-26T07:58:51.959Z,10.39
2023-04-26T08:01:19.118Z,10.82
2023-04-26T08:03:48.921Z,10.93
2023-04-26T08:06:22.240Z,11.38
2023-04-26T08:08:51.129Z,11.54
2023-04-26T08:11:18.745Z,11.77
2023-04-26T08:13:46.555Z,12.22
2023-04-26T08:16:14.105Z,12.27
2023-04-26T08:18:41.845Z,12.02
2023-04-26T08:21:09.981Z,12.20
2023-04-26T08:23:37.690Z,12.47
2023-04-26T08:26:08.075Z,12.10
2023-04-26T08:28:36.293Z,12.28
2023-04-26T08:31:04.654Z,12.91
2023-04-26T08:33:34.550Z,12.79
2023-04-26T08:36:02.349Z,13.06
2023-04-26T08:38:30.867Z,13.41
2023-04-26T08:41:03.567Z,13.80
2023-04-26T08:43:31.156Z,13.01
2023-04-26T08:46:01.861Z,13.60
2023-04-26T08:48:34.339Z,12.39
2023-04-26T08:51:27.595Z,13.35
2023-04-26T08:53:58.178Z,13.76
2023-04-26T08:56:27.586Z,13.78
2023-04-26T08:58:55.549Z,13.46
2023-04-26T09:01:24.561Z,13.23
2023-04-26T09:03:53.056Z,12.64
2023-04-26T09:06:21.692Z,12.99
2023-04-26T09:08:51.004Z,12.90
2023-04-26T09:11:18.683Z,13.70
2023-04-26T09:13:46.364Z,14.12
2023-04-26T09:16:14.271Z,14.61
2023-04-26T09:18:57.358Z,14.54
2023-04-26T09:21:30.737Z,14.57
2023-04-26T09:24:06.736Z,14.19
2023-04-26T09:26:37.302Z,13.94
2023-04-26T09:29:15.977Z,13.91
2023-04-26T09:31:49.511Z,14.35
2023-04-26T09:34:18.325Z,14.28
2023-04-26T09:36:57.037Z,14.91
2023-04-26T09:39:40.266Z,15.37
2023-04-26T09:42:09.463Z,15.03
2023-04-26T09:44:37.610Z,15.71
2023-04-26T09:47:10.095Z,16.04
2023-04-26T09:49:51.652Z,16.19
2023-04-26T09:52:20.370Z,16.53
2023-04-26T09:54:53.117Z,16.65
2023-04-26T09:57:23.521Z,16.92
2023-04-26T09:59:55.324Z,17.26
2023-04-26T10:02:26.833Z,17.04
2023-04-26T10:04:57.285Z,16.92
2023-04-26T10:07:26.227Z,17.33
2023-04-26T10:09:57.237Z,17.50
2023-04-26T10:12:24.913Z,17.01
2023-04-26T10:14:52.740Z,17.08
2023-04-26T10:17:21.165Z,17.41
2023-04-26T10:19:57.721Z,17.64
2023-04-26T10:22:33.703Z,18.03
2023-04-26T10:25:01.493Z,17.99
2023-04-26T10:27:46.837Z,17.33
2023-04-26T10:30:17.184Z,17.98
2023-04-26T10:33:08.134Z,18.12
2023-04-26T10:35:38.141Z,17.66
2023-04-26T10:38:10.386Z,17.64
2023-04-26T10:40:41.649Z,18.07
2023-04-26T10:43:13.709Z,17.98
2023-04-26T10:45:49.229Z,17.90
2023-04-26T10:48:31.530Z,18.25
2023-04-26T10:51:02.677Z,18.81
2023-04-26T10:53:46.284Z,18.32
2023-04-26T10:56:25.980Z,18.73
2023-04-26T11:01:46.612Z,17.71
2023-04-26T11:04:16.847Z,16.39
2023-04-26T11:06:57.781Z,17.22
2023-04-26T11:09:41.339Z,17.46
2023-04-26T11:12:29.564Z,17.07
2023-04-26T11:15:01.199Z,16.85
2023-04-26T11:17:28.918Z,17.04
2023-04-26T11:19:56.653Z,17.71
2023-04-26T11:22:24.898Z,17.73
2023-04-26T11:24:52.942Z,18.10
2023-04-26T11:27:20.612Z,17.82
2023-04-26T11:29:48.212Z,17.90
2023-04-26T11:32:16.381Z,18.05
2023-04-26T11:34:44.388Z,18.24
2023-04-26T11:37:12.773Z,18.50
2023-04-26T11:39:40.634Z,18.94
2023-04-26T11:42:14.773Z,19.64
2023-04-26T11:44:42.489Z,20.00
2023-04-26T11:47:10.869Z,20.06
2023-04-26T11:49:39.509Z,20.93
2023-04-26T11:52:08.847Z,20.83
2023-04-26T11:54:37.864Z,21.55
2023-04-26T11:57:18.120Z,22.33
2023-04-26T11:59:46.415Z,22.94
2023-04-26T12:02:14.430Z,23.68
2023-04-26T12:04:44.258Z,23.83
2023-04-26T12:07:12.205Z,23.17
2023-04-26T12:09:42.792Z,22.19
2023-04-26T12:12:14.536Z,20.76
2023-04-26T12:14:42.429Z,22.09
2023-04-26T12:19:44.071Z,24.31
2023-04-26T12:22:13.481Z,24.21
2023-04-26T12:24:43.203Z,21.00
2023-04-26T12:27:21.930Z,21.06
2023-04-26T12:29:49.555Z,18.57
2023-04-26T12:32:17.257Z,19.16
2023-04-26T12:34:44.893Z,19.96
2023-04-26T12:37:12.681Z,21.45
2023-04-26T12:39:44.436Z,23.65
2023-04-26T12:42:12.310Z,24.84
2023-04-26T12:44:40.069Z,24.87
2023-04-26T12:47:08.303Z,23.03
2023-04-26T12:49:36.048Z,23.63
2023-04-26T12:52:06.620Z,23.50
2023-04-26T12:54:34.249Z,21.21
2023-04-26T12:57:06.557Z,22.43
2023-04-26T12:59:34.633Z,23.80
2023-04-26T13:02:03.947Z,25.57
2023-04-26T13:04:32.320Z,27.09
2023-04-26T13:07:00.740Z,28.54
2023-04-26T13:09:28.503Z,27.45
2023-04-26T13:11:56.619Z,26.50
2023-04-26T13:14:24.401Z,27.50
2023-04-26T13:16:52.578Z,27.65
2023-04-26T13:19:20.364Z,27.63
2023-04-26T13:21:48.600Z,27.36
2023-04-26T13:24:16.579Z,27.58
2023-04-26T13:26:44.279Z,28.30
2023-04-26T13:29:12.104Z,29.77
2023-04-26T13:31:40.179Z,30.32
2023-04-26T13:34:16.812Z,29.02
2023-04-26T13:36:44.752Z,26.60
2023-04-26T13:39:12.507Z,28.05
2023-04-26T13:41:43.219Z,30.50
2023-04-26T13:44:11.089Z,33.04
2023-04-26T13:46:39.104Z,33.64
2023-04-26T13:49:12.473Z,32.17
2023-04-26T13:51:40.528Z,29.57
2023-04-26T13:54:10.655Z,28.66
2023-04-26T13:56:38.612Z,28.10
2023-04-26T13:59:07.636Z,27.82
2023-04-26T14:01:36.313Z,27.47
2023-04-26T14:04:04.672Z,26.76
2023-04-26T14:06:34.322Z,26.98
2023-04-26T14:09:02.274Z,27.02
2023-04-26T14:11:30.940Z,25.88
2023-04-26T14:13:59.159Z,25.64
2023-04-26T14:16:27.129Z,25.65
2023-04-26T14:18:55.056Z,26.67
2023-04-26T14:21:22.819Z,27.49
2023-04-26T14:23:50.574Z,27.72
2023-04-26T14:26:18.510Z,27.59
2023-04-26T14:28:46.732Z,28.82
2023-04-26T14:31:14.608Z,29.61
2023-04-26T14:33:42.353Z,29.87
2023-04-26T14:36:10.065Z,30.11
2023-04-26T14:38:37.748Z,29.52
2023-04-26T14:41:05.561Z,28.59
2023-04-26T14:43:33.701Z,30.15
2023-04-26T14:46:03.435Z,29.96
2023-04-26T14:48:31.542Z,28.52
2023-04-26T14:51:00.194Z,27.56
2023-04-26T14:53:28.502Z,26.67
2023-04-26T14:56:00.288Z,26.65
2023-04-26T14:58:28.002Z,26.03
2023-04-26T15:00:56.004Z,26.30
2023-04-26T15:03:23.809Z,26.44
2023-04-26T15:05:51.669Z,25.17
2023-04-26T15:08:19.650Z,25.43
2023-04-26T15:10:47.526Z,25.58
2023-04-26T15:13:15.293Z,24.49
2023-04-26T15:15:43.035Z,25.30
2023-04-26T15:18:10.765Z,25.85
2023-04-26T15:20:41.661Z,24.44
2023-04-26T15:23:09.315Z,24.60
2023-04-26T15:25:42.298Z,24.23
2023-04-26T15:28:09.878Z,24.00
2023-04-26T15:30:37.436Z,25.44
2023-04-26T15:33:06.656Z,26.63
2023-04-26T15:35:35.885Z,27.49
2023-04-26T15:38:03.436Z,28.33
2023-04-26T15:40:32.751Z,29.29
2023-04-26T15:43:00.779Z,30.05
2023-04-26T15:45:28.396Z,31.00
2023-04-26T15:47:57.221Z,31.98
2023-04-26T15:50:25.040Z,32.70
2023-04-26T15:52:52.759Z,30.65
2023-04-26T15:55:20.917Z,31.72
2023-04-26T15:57:48.521Z,32.76
2023-04-26T16:00:17.061Z,33.06
2023-04-26T16:02:49.066Z,33.08
2023-04-26T16:05:17.380Z,32.74
2023-04-26T16:07:45.057Z,30.50
2023-04-26T16:10:12.854Z,29.33
2023-04-26T16:12:41.752Z,27.17
2023-04-26T16:15:10.423Z,26.89
2023-04-26T16:17:38.846Z,26.30
2023-04-26T16:20:08.234Z,26.25
2023-04-26T16:22:36.601Z,25.97
2023-04-26T16:25:06.733Z,23.81
2023-04-26T16:27:37.023Z,23.47
2023-04-26T16:30:05.625Z,23.38
2023-04-26T16:32:34.007Z,23.08
2023-04-26T16:35:01.691Z,22.82
2023-04-26T16:37:29.313Z,22.68
2023-04-26T16:39:57.201Z,22.42
2023-04-26T16:42:29.877Z,21.87
2023-04-26T16:44:57.996Z,21.95
2023-04-26T16:47:25.579Z,22.01
2023-04-26T16:49:53.130Z,21.67
2023-04-26T16:52:20.891Z,21.08
2023-04-26T16:54:48.501Z,20.72
2023-04-26T16:57:16.524Z,21.00
2023-04-26T16:59:44.180Z,20.97
2023-04-26T17:02:14.045Z,20.82
2023-04-26T17:04:42.461Z,20.87
2023-04-26T17:07:11.034Z,20.50
2023-04-26T17:09:39.037Z,20.45
2023-04-26T17:12:07.528Z,20.27
2023-04-26T17:14:35.114Z,19.81
2023-04-26T17:17:02.700Z,19.57
2023-04-26T17:19:30.238Z,19.61
2023-04-26T17:21:58.158Z,19.61
2023-04-26T17:24:26.216Z,19.35
2023-04-26T17:26:53.936Z,19.38
2023-04-26T17:29:21.790Z,19.51
2023-04-26T17:31:49.418Z,19.45
2023-04-26T17:34:17.955Z,19.13
2023-04-26T17:36:47.434Z,18.91
2023-04-26T17:39:17.438Z,18.93
2023-04-26T17:41:45.175Z,18.62
2023-04-26T17:44:12.821Z,18.40
2023-04-26T17:46:40.745Z,18.42
2023-04-26T17:49:08.530Z,18.47
2023-04-26T17:51:36.186Z,18.20
2023-04-26T17:54:04.118Z,17.72
2023-04-26T17:56:31.687Z,17.86
2023-04-26T17:59:00.055Z,17.48
2023-04-26T18:01:28.964Z,17.52
2023-04-26T18:03:56.697Z,17.16
2023-04-26T18:06:24.512Z,16.92
2023-04-26T18:08:52.535Z,16.68
2023-04-26T18:11:21.308Z,16.49
2023-04-26T18:13:49.095Z,16.26
2023-04-26T18:16:22.716Z,16.13
2023-04-26T18:18:50.408Z,16.11
2023-04-26T18:21:17.979Z,16.07
2023-04-26T18:23:46.970Z,15.97
2023-04-26T18:26:14.603Z,15.90
2023-04-26T18:28:44.804Z,15.80
2023-04-26T18:31:12.476Z,15.84
2023-04-26T18:33:40.242Z,15.70
2023-04-26T18:36:08.110Z,15.56
2023-04-26T18:38:35.771Z,15.34
2023-04-26T18:41:03.515Z,15.33
2023-04-26T18:43:31.155Z,15.14
2023-04-26T18:45:59.060Z,15.05
2023-04-26T18:48:26.841Z,15.04
2023-04-26T18:50:56.396Z,14.94
2023-04-26T18:53:24.133Z,14.96
2023-04-26T18:55:56.219Z,14.76
2023-04-26T18:58:23.977Z,14.79
2023-04-26T19:00:55.957Z,14.76
2023-04-26T19:03:24.027Z,14.72
2023-04-26T19:05:51.977Z,14.69
2023-04-26T19:08:20.099Z,14.62
2023-04-26T19:10:47.798Z,14.54
2023-04-26T19:13:15.503Z,14.49
2023-04-26T19:15:43.280Z,14.58
2023-04-26T19:18:10.944Z,14.61
2023-04-26T19:20:38.709Z,14.55
2023-04-26T19:23:06.460Z,14.51
2023-04-26T19:25:35.120Z,14.52
2023-04-26T19:28:02.961Z,14.54
2023-04-26T19:30:30.871Z,14.58
2023-04-26T19:32:58.470Z,14.57
2023-04-26T19:35:26.347Z,14.51
2023-04-26T19:37:59.850Z,14.53
2023-04-26T19:40:32.723Z,14.46
2023-04-26T19:43:02.659Z,14.50
2023-04-26T19:45:30.417Z,14.50
2023-04-26T19:47:58.339Z,14.41
2023-04-26T19:50:26.319Z,14.33
2023-04-26T19:52:53.990Z,14.23
2023-04-26T19:55:21.932Z,14.22
2023-04-26T19:57:51.995Z,14.19
2023-04-26T20:00:21.282Z,14.23
2023-04-26T20:02:49.833Z,14.29
2023-04-26T20:05:17.839Z,14.34
2023-04-26T20:07:46.372Z,14.37
2023-04-26T20:10:14.713Z,14.35
2023-04-26T20:12:44.872Z,14.38
2023-04-26T20:15:15.179Z,14.40
2023-04-26T20:17:44.045Z,14.33
2023-04-26T20:20:12.779Z,14.30
2023-04-26T20:22:41.761Z,14.33
2023-04-26T20:25:10.050Z,14.33
2023-04-26T20:27:38.426Z,14.24
2023-04-26T20:30:07.483Z,14.33
2023-04-26T20:32:35.566Z,14.29
2023-04-26T20:35:04.669Z,14.15
2023-04-26T20:37:32.730Z,14.09
2023-04-26T20:40:00.614Z,13.90
2023-04-26T20:42:28.617Z,13.98
2023-04-26T20:45:02.021Z,13.88
2023-04-26T20:47:32.047Z,13.80
2023-04-26T20:49:59.738Z,13.80
2023-04-26T20:52:27.395Z,13.84
2023-04-26T20:54:57.124Z,13.69
2023-04-26T20:57:25.031Z,13.39
2023-04-26T20:59:53.053Z,13.63
2023-04-26T21:02:21.136Z,13.62
2023-04-26T21:04:49.138Z,13.66
2023-04-26T21:07:23.233Z,13.75
2023-04-26T21:09:51.109Z,13.70
2023-04-26T21:12:18.693Z,13.65
2023-04-26T21:14:47.744Z,13.50
2023-04-26T21:17:16.047Z,13.51
2023-04-26T21:19:44.519Z,13.53
2023-04-26T21:22:12.258Z,13.13
2023-04-26T21:24:39.814Z,13.32
2023-04-26T21:27:07.413Z,13.28
2023-04-26T21:29:34.929Z,13.35
2023-04-26T21:32:02.645Z,13.37
2023-04-26T21:34:30.254Z,13.37
2023-04-26T21:36:57.750Z,13.27
2023-04-26T21:39:25.423Z,13.27
2023-04-26T21:41:53.016Z,13.27
2023-04-26T21:44:20.649Z,13.29
2023-04-26T21:46:48.357Z,13.24
2023-04-26T21:49:16.393Z,13.28
2023-04-26T21:51:43.998Z,13.29
2023-04-26T21:54:11.694Z,13.25
2023-04-26T21:56:39.792Z,13.08
2023-04-26T21:59:08.886Z,13.05
2023-04-26T22:01:48.099Z,13.03
2023-04-26T22:04:16.075Z,12.93
2023-04-26T22:06:43.713Z,12.89
2023-04-26T22:09:11.710Z,12.79
2023-04-26T22:11:39.658Z,12.77
2023-04-26T22:14:08.689Z,12.83
2023-04-26T22:16:38.900Z,12.82
2023-04-26T22:19:06.534Z,12.74
2023-04-26T22:21:59.186Z,12.67
2023-04-26T22:24:27.095Z,12.54
2023-04-26T22:26:54.691Z,12.38
2023-04-26T22:29:22.300Z,12.58
2023-04-26T22:31:49.954Z,12.53
2023-04-26T22:34:20.116Z,12.56
2023-04-26T22:36:48.246Z,12.42
2023-04-26T22:39:19.592Z,12.48
2023-04-26T22:41:47.167Z,12.49
2023-04-26T22:44:15.112Z,12.51
2023-04-26T22:46:46.202Z,12.55
2023-04-26T22:49:14.618Z,12.40
2023-04-26T22:51:45.943Z,12.41
2023-04-26T22:54:18.513Z,12.23
2023-04-26T22:56:46.240Z,11.79
2023-04-26T22:59:13.946Z,11.79
2023-04-26T23:01:41.893Z,11.88
2023-04-26T23:04:11.766Z,11.73
2023-04-26T23:06:39.508Z,11.85
2023-04-26T23:09:07.128Z,11.90
2023-04-26T23:11:34.683Z,11.89
2023-04-26T23:14:02.573Z,11.89
2023-04-26T23:16:30.235Z,11.80
2023-04-26T23:19:00.816Z,11.68
2023-04-26T23:21:29.361Z,11.63
2023-04-26T23:23:57.435Z,11.68
2023-04-26T23:26:25.214Z,11.75
2023-04-26T23:28:52.787Z,11.74
2023-04-26T23:31:20.626Z,11.54
2023-04-26T23:33:48.377Z,11.42
2023-04-26T23:36:16.016Z,11.40
2023-04-26T23:38:43.630Z,11.39
2023-04-26T23:41:11.169Z,11.31
2023-04-26T23:43:38.760Z,11.36
2023-04-26T23:46:06.824Z,11.43
2023-04-26T23:48:34.562Z,11.38
2023-04-26T23:51:02.210Z,11.49
2023-04-26T23:53:29.914Z,11.51
2023-04-26T23:55:57.527Z,11.49
2023-04-26T23:58:25.076Z,11.14
